createdAt,value
2019-05-18T00:00:10.334Z,22.37
2019-05-18T00:02:41.421Z,19.47
2019-05-18T00:05:12.099Z,20.53
2019-05-18T00:07:41.569Z,20.27
2019-05-18T00:10:11.401Z,20.53
2019-05-18T00:12:40.931Z,21.43
2019-05-18T00:15:10.952Z,19.80
2019-05-18T00:17:40.413Z,18.60
2019-05-18T00:20:10.230Z,21.10
2019-05-18T00:22:39.704Z,19.10
2019-05-18T00:25:09.360Z,21.10
2019-05-18T00:27:38.859Z,22.17
2019-05-18T00:30:09.053Z,20.63
2019-05-18T00:32:38.583Z,21.40
2019-05-18T00:35:08.515Z,23.07
2019-05-18T00:37:38.145Z,21.67
2019-05-18T00:40:07.951Z,22.93
2019-05-18T00:42:37.414Z,20.87
2019-05-18T00:45:07.832Z,22.93
2019-05-18T00:47:41.230Z,23.33
2019-05-18T00:50:09.295Z,22.83
2019-05-18T00:52:38.750Z,22.30
2019-05-18T00:55:10.051Z,22.57
2019-05-18T00:57:39.516Z,24.17
2019-05-18T01:00:10.038Z,25.57
2019-05-18T01:02:40.556Z,25.13
2019-05-18T01:05:10.571Z,25.07
2019-05-18T01:07:40.028Z,24.33
2019-05-18T01:10:10.042Z,24.87
2019-05-18T01:12:39.499Z,25.03
2019-05-18T01:15:10.016Z,25.23
2019-05-18T01:17:39.548Z,28.23
2019-05-18T01:20:09.266Z,25.70
2019-05-18T01:22:38.725Z,27.13
2019-05-18T01:25:08.448Z,28.57
2019-05-18T01:27:37.902Z,26.90
2019-05-18T01:30:09.223Z,30.97
2019-05-18T01:32:38.751Z,29.53
2019-05-18T01:35:08.645Z,30.23
2019-05-18T01:37:38.168Z,31.83
2019-05-18T01:40:08.495Z,28.37
2019-05-18T01:42:37.945Z,29.63
2019-05-18T01:45:16.200Z,30.80
2019-05-18T01:47:39.418Z,28.33
2019-05-18T01:50:09.141Z,29.27
2019-05-18T01:52:38.595Z,29.97
2019-05-18T01:55:08.420Z,29.53
2019-05-18T01:57:37.871Z,29.10
2019-05-18T02:00:08.869Z,28.33
2019-05-18T02:02:39.299Z,29.73
2019-05-18T02:05:10.395Z,29.73
2019-05-18T02:07:39.855Z,28.80
2019-05-18T02:10:09.777Z,31.00
2019-05-18T02:12:39.223Z,31.23
2019-05-18T02:15:09.141Z,29.10
2019-05-18T02:17:38.663Z,30.47
2019-05-18T02:20:08.585Z,33.17
2019-05-18T02:22:38.043Z,30.43
2019-05-18T02:25:09.060Z,30.80
2019-05-18T02:27:38.523Z,30.47
2019-05-18T02:30:08.546Z,29.60
2019-05-18T02:32:39.063Z,28.23
2019-05-18T02:35:08.711Z,29.07
2019-05-18T02:37:38.179Z,27.27
2019-05-18T02:40:08.582Z,28.57
2019-05-18T02:42:38.250Z,30.90
2019-05-18T02:45:08.376Z,35.10
2019-05-18T02:47:37.822Z,32.17
2019-05-18T02:50:09.172Z,29.27
2019-05-18T02:52:38.695Z,30.63
2019-05-18T02:55:08.333Z,27.73
2019-05-18T02:57:37.809Z,28.73
2019-05-18T03:00:09.820Z,29.40
2019-05-18T03:02:39.301Z,34.63
2019-05-18T03:05:09.093Z,39.20
2019-05-18T03:07:38.598Z,32.23
2019-05-18T03:10:08.585Z,30.17
2019-05-18T03:12:38.133Z,29.03
2019-05-18T03:15:08.033Z,27.37
2019-05-18T03:17:37.503Z,33.87
2019-05-18T03:20:07.495Z,37.83
2019-05-18T03:22:36.980Z,31.47
2019-05-18T03:25:09.500Z,31.80
2019-05-18T03:27:38.972Z,31.37
2019-05-18T03:30:09.314Z,32.63
2019-05-18T03:32:38.859Z,40.47
2019-05-18T03:35:08.446Z,35.53
2019-05-18T03:37:38.892Z,31.97
2019-05-18T03:40:08.488Z,30.07
2019-05-18T03:42:37.977Z,30.37
2019-05-18T03:45:07.861Z,28.30
2019-05-18T03:47:37.330Z,30.10
2019-05-18T03:50:09.128Z,33.73
2019-05-18T03:52:38.625Z,40.07
2019-05-18T03:55:08.201Z,32.83
2019-05-18T03:57:37.698Z,30.60
2019-05-18T04:00:08.078Z,29.33
2019-05-18T04:02:37.595Z,30.57
2019-05-18T04:05:08.000Z,30.50
2019-05-18T04:07:37.463Z,34.80
2019-05-18T04:10:08.060Z,32.87
2019-05-18T04:12:37.607Z,37.63
2019-05-18T04:15:07.799Z,37.37
2019-05-18T04:17:37.283Z,35.43
2019-05-18T04:20:08.272Z,32.57
2019-05-18T04:22:37.753Z,34.47
2019-05-18T04:25:07.277Z,37.47
2019-05-18T04:27:36.755Z,39.10
2019-05-18T04:30:07.158Z,33.23
2019-05-18T04:32:36.911Z,33.60
2019-05-18T04:35:08.285Z,34.60
2019-05-18T04:37:37.771Z,34.47
2019-05-18T04:40:07.471Z,38.70
2019-05-18T04:42:36.939Z,41.77
2019-05-18T04:45:07.750Z,40.40
2019-05-18T04:47:37.224Z,34.23
2019-05-18T04:50:08.620Z,31.07
2019-05-18T04:52:38.110Z,32.07
2019-05-18T04:55:07.702Z,33.10
2019-05-18T04:57:37.195Z,31.70
2019-05-18T05:00:08.459Z,34.07
2019-05-18T05:02:38.006Z,34.70
2019-05-18T05:05:07.524Z,36.83
2019-05-18T05:07:37.012Z,38.30
2019-05-18T05:10:08.009Z,40.37
2019-05-18T05:12:38.325Z,38.80
2019-05-18T05:15:07.896Z,42.80
2019-05-18T05:17:38.435Z,42.03
2019-05-18T05:20:19.286Z,39.53
2019-05-18T05:22:39.338Z,39.97
2019-05-18T05:25:09.131Z,38.97
2019-05-18T05:27:38.611Z,38.13
2019-05-18T05:30:08.610Z,37.53
2019-05-18T05:32:38.089Z,37.40
2019-05-18T05:35:07.893Z,35.60
2019-05-18T05:37:37.417Z,37.87
2019-05-18T05:40:07.490Z,34.50
2019-05-18T05:42:36.962Z,36.00
2019-05-18T05:45:07.944Z,34.43
2019-05-18T05:47:37.426Z,34.27
2019-05-18T05:50:08.639Z,34.00
2019-05-18T05:52:38.148Z,31.87
2019-05-18T05:55:08.461Z,33.53
2019-05-18T05:57:37.942Z,33.10
2019-05-18T06:00:08.467Z,32.57
2019-05-18T06:02:37.939Z,33.43
2019-05-18T06:05:07.762Z,34.43
2019-05-18T06:07:37.231Z,35.23
2019-05-18T06:10:07.656Z,34.03
2019-05-18T06:12:37.122Z,35.93
2019-05-18T06:15:09.011Z,34.50
2019-05-18T06:17:38.739Z,33.63
2019-05-18T06:20:08.964Z,32.47
2019-05-18T06:22:38.423Z,33.43
2019-05-18T06:25:08.378Z,33.50
2019-05-18T06:27:37.945Z,32.87
2019-05-18T06:30:08.175Z,30.93
2019-05-18T06:32:37.707Z,31.00
2019-05-18T06:35:07.632Z,32.13
2019-05-18T06:37:37.086Z,31.70
2019-05-18T06:40:07.613Z,30.73
2019-05-18T06:42:37.078Z,29.67
2019-05-18T06:45:07.999Z,30.73
2019-05-18T06:47:37.465Z,30.27
2019-05-18T06:50:11.679Z,28.00
2019-05-18T06:52:39.976Z,29.37
2019-05-18T06:55:09.792Z,29.43
2019-05-18T06:57:40.130Z,30.00
2019-05-18T07:00:12.884Z,28.37
2019-05-18T07:02:42.417Z,29.00
2019-05-18T07:05:12.042Z,28.17
2019-05-18T07:07:41.879Z,28.43
2019-05-18T07:10:11.503Z,29.50
2019-05-18T07:12:40.972Z,27.90
2019-05-18T07:15:12.397Z,28.07
2019-05-18T07:17:41.866Z,27.40
2019-05-18T07:20:11.880Z,26.97
2019-05-18T07:22:41.614Z,25.07
2019-05-18T07:25:12.414Z,24.63
2019-05-18T07:27:41.871Z,24.93
2019-05-18T07:30:11.702Z,22.00
2019-05-18T07:32:41.531Z,19.80
2019-05-18T07:35:11.354Z,18.63
2019-05-18T07:37:40.825Z,18.20
2019-05-18T07:40:10.644Z,18.60
2019-05-18T07:42:40.215Z,18.67
2019-05-18T07:45:10.243Z,18.00
2019-05-18T07:47:39.708Z,16.80
2019-05-18T07:50:09.332Z,16.93
2019-05-18T07:52:38.795Z,16.47
2019-05-18T07:55:08.715Z,15.33
2019-05-18T07:57:38.176Z,15.60
2019-05-18T08:00:08.164Z,16.37
2019-05-18T08:02:37.681Z,15.53
2019-05-18T08:05:07.790Z,16.00
2019-05-18T08:07:37.246Z,14.93
2019-05-18T08:10:10.029Z,13.75
2019-05-18T08:12:39.473Z,12.75
2019-05-18T08:15:11.195Z,12.58
2019-05-18T08:17:40.640Z,12.53
2019-05-18T08:20:10.434Z,11.88
2019-05-18T08:22:39.891Z,11.70
2019-05-18T08:25:09.605Z,11.95
2019-05-18T08:27:39.053Z,10.40
2019-05-18T08:30:09.071Z,12.15
2019-05-18T08:32:38.543Z,10.98
2019-05-18T08:35:08.244Z,10.88
2019-05-18T08:37:37.723Z,10.88
2019-05-18T08:40:08.132Z,12.00
2019-05-18T08:42:38.318Z,10.90
2019-05-18T08:45:08.938Z,11.00
2019-05-18T08:47:38.399Z,10.45
2019-05-18T08:50:09.811Z,10.30
2019-05-18T08:52:39.261Z,10.78
2019-05-18T08:55:09.895Z,8.85
2019-05-18T08:57:39.345Z,8.78
2019-05-18T09:00:09.728Z,8.30
2019-05-18T09:02:39.182Z,8.33
2019-05-18T09:05:08.999Z,8.55
2019-05-18T09:07:38.448Z,7.03
2019-05-18T09:10:08.457Z,7.65
2019-05-18T09:12:37.901Z,7.50
2019-05-18T09:15:09.200Z,6.75
2019-05-18T09:17:38.638Z,7.37
2019-05-18T09:20:09.049Z,6.72
2019-05-18T09:22:38.620Z,6.62
2019-05-18T09:25:10.510Z,6.85
2019-05-18T09:27:40.001Z,7.80
2019-05-18T09:30:10.001Z,7.55
2019-05-18T09:32:39.467Z,7.20
2019-05-18T09:35:09.372Z,7.15
2019-05-18T09:37:38.782Z,7.17
2019-05-18T09:40:08.854Z,6.87
2019-05-18T09:42:38.469Z,7.08
2019-05-18T09:45:09.755Z,7.60
2019-05-18T09:47:39.581Z,6.80
2019-05-18T09:50:09.670Z,5.87
2019-05-18T09:52:45.471Z,6.20
2019-05-18T09:55:10.346Z,4.97
2019-05-18T09:57:39.817Z,5.67
2019-05-18T10:00:11.402Z,5.78
2019-05-18T10:02:41.235Z,5.60
2019-05-18T10:05:11.376Z,6.22
2019-05-18T10:07:40.842Z,6.03
2019-05-18T10:10:10.937Z,5.30
2019-05-18T10:12:40.354Z,4.97
2019-05-18T10:15:10.416Z,4.78
2019-05-18T10:17:39.878Z,4.90
2019-05-18T10:20:10.159Z,4.22
2019-05-18T10:22:53.559Z,4.42
2019-05-18T10:25:11.985Z,4.83
2019-05-18T10:27:41.382Z,4.10
2019-05-18T10:30:11.069Z,3.35
2019-05-18T10:32:40.531Z,3.52
2019-05-18T10:35:10.409Z,3.75
2019-05-18T10:37:39.878Z,4.60
2019-05-18T10:40:09.655Z,3.70
2019-05-18T10:42:39.117Z,4.30
2019-05-18T10:45:09.502Z,3.83
2019-05-18T10:47:38.974Z,2.80
2019-05-18T10:50:09.063Z,3.90
2019-05-18T10:52:38.529Z,4.45
2019-05-18T10:55:08.712Z,4.55
2019-05-18T10:57:38.174Z,4.15
2019-05-18T11:00:10.332Z,3.98
2019-05-18T11:02:39.874Z,3.67
2019-05-18T11:05:11.125Z,3.60
2019-05-18T11:07:40.628Z,3.10
2019-05-18T11:10:11.191Z,3.22
2019-05-18T11:12:40.791Z,3.40
2019-05-18T11:15:11.394Z,3.70
2019-05-18T11:17:41.007Z,3.77
2019-05-18T11:20:13.317Z,4.67
2019-05-18T11:22:42.778Z,5.00
2019-05-18T11:25:13.262Z,5.20
2019-05-18T11:27:42.729Z,5.25
2019-05-18T11:30:13.028Z,6.87
2019-05-18T11:32:42.484Z,7.72
2019-05-18T11:35:12.705Z,6.92
2019-05-18T11:37:42.154Z,6.85
2019-05-18T11:40:12.320Z,6.83
2019-05-18T11:42:41.796Z,6.60
2019-05-18T11:45:12.890Z,6.97
2019-05-18T11:47:42.357Z,5.58
2019-05-18T11:50:12.176Z,5.67
2019-05-18T11:52:41.617Z,6.03
2019-05-18T11:55:11.702Z,5.10
2019-05-18T11:57:41.165Z,4.60
2019-05-18T12:00:13.323Z,7.05
2019-05-18T12:02:42.801Z,4.72
2019-05-18T12:05:12.582Z,5.30
2019-05-18T12:07:42.049Z,5.20
2019-05-18T12:10:12.641Z,5.30
2019-05-18T12:12:42.119Z,6.70
2019-05-18T12:15:12.397Z,6.85
2019-05-18T12:17:41.866Z,7.15
2019-05-18T12:22:31.159Z,6.58
2019-05-18T12:25:00.645Z,6.22
2019-05-18T12:27:30.092Z,6.50
2019-05-18T12:29:59.557Z,5.95
2019-05-18T12:32:29.038Z,5.75
2019-05-18T12:34:58.489Z,5.62
2019-05-18T12:37:27.968Z,6.17
2019-05-18T12:39:57.423Z,6.20
2019-05-18T12:42:26.912Z,6.37
2019-05-18T12:44:56.367Z,6.20
2019-05-18T12:47:25.851Z,5.90
2019-05-18T12:49:55.341Z,5.47
2019-05-18T12:52:24.790Z,6.03
2019-05-18T12:54:54.274Z,5.10
2019-05-18T12:57:23.744Z,5.72
2019-05-18T12:59:53.276Z,6.28
2019-05-18T13:02:22.746Z,7.22
2019-05-18T13:04:52.227Z,6.40
2019-05-18T13:07:21.680Z,6.20
2019-05-18T13:09:51.154Z,6.97
2019-05-18T13:12:20.988Z,5.40
2019-05-18T13:14:50.468Z,5.30
2019-05-18T13:17:21.387Z,4.40
2019-05-18T13:19:50.911Z,5.25
2019-05-18T13:22:20.434Z,5.12
2019-05-18T13:24:52.133Z,5.47
2019-05-18T13:27:21.000Z,4.90
2019-05-18T13:29:50.470Z,5.00
2019-05-18T13:32:19.927Z,5.35
2019-05-18T13:34:50.493Z,5.50
2019-05-18T13:37:19.953Z,5.83
2019-05-18T13:39:49.431Z,5.17
2019-05-18T13:42:18.882Z,5.62
2019-05-18T13:44:48.371Z,4.50
2019-05-18T13:47:17.833Z,4.28
2019-05-18T13:49:47.299Z,4.33
2019-05-18T13:52:16.754Z,4.12
2019-05-18T13:55:01.916Z,4.62
2019-05-18T13:57:17.324Z,4.33
2019-05-18T13:59:46.798Z,4.83
2019-05-18T14:02:16.272Z,4.90
2019-05-18T14:04:45.741Z,4.20
2019-05-18T14:07:15.193Z,4.03
2019-05-18T14:09:44.672Z,4.22
2019-05-18T14:12:14.124Z,3.70
2019-05-18T14:14:43.600Z,4.05
2019-05-18T14:17:13.059Z,4.83
2019-05-18T14:19:42.549Z,4.12
2019-05-18T14:22:12.002Z,4.28
2019-05-18T14:24:41.484Z,4.78
2019-05-18T14:27:10.964Z,5.12
2019-05-18T14:29:40.444Z,5.00
2019-05-18T14:32:11.083Z,4.78
2019-05-18T14:34:41.757Z,4.40
2019-05-18T14:37:11.208Z,4.62
2019-05-18T14:39:40.683Z,5.28
2019-05-18T14:42:10.147Z,5.03
2019-05-18T14:44:39.710Z,4.12
2019-05-18T14:47:09.155Z,4.65
2019-05-18T14:49:38.638Z,4.65
2019-05-18T14:52:11.827Z,4.53
2019-05-18T14:54:39.196Z,4.87
2019-05-18T14:57:08.723Z,4.37
2019-05-18T14:59:38.204Z,4.87
2019-05-18T15:02:07.756Z,4.55
2019-05-18T15:04:37.228Z,4.37
2019-05-18T15:07:06.684Z,4.65
2019-05-18T15:09:36.230Z,4.17
2019-05-18T15:12:05.691Z,4.05
2019-05-18T15:14:35.171Z,4.50
2019-05-18T15:17:04.702Z,4.15
2019-05-18T15:19:34.177Z,4.20
2019-05-18T15:22:03.771Z,4.03
2019-05-18T15:24:33.243Z,4.78
2019-05-18T15:27:03.773Z,3.77
2019-05-18T15:29:33.240Z,4.08
2019-05-18T15:32:02.695Z,4.10
2019-05-18T15:34:32.175Z,3.87
2019-05-18T15:37:01.720Z,3.92
2019-05-18T15:39:31.190Z,3.80
2019-05-18T15:42:00.643Z,3.98
2019-05-18T15:44:30.121Z,3.67
2019-05-18T15:46:59.648Z,3.80
2019-05-18T15:49:29.165Z,3.65
2019-05-18T15:51:58.614Z,3.77
2019-05-18T15:54:28.157Z,3.50
2019-05-18T15:56:57.611Z,3.70
2019-05-18T15:59:27.095Z,3.70
2019-05-18T16:01:56.583Z,3.37
2019-05-18T16:04:26.027Z,3.60
2019-05-18T16:06:55.650Z,3.55
2019-05-18T16:09:25.136Z,2.87
2019-05-18T16:11:54.592Z,2.83
2019-05-18T16:14:24.084Z,3.35
2019-05-18T16:16:55.054Z,3.08
2019-05-18T16:19:24.697Z,2.60
2019-05-18T16:21:54.170Z,3.45
2019-05-18T16:24:23.983Z,3.15
2019-05-18T16:26:53.460Z,2.92
2019-05-18T16:29:22.916Z,2.35
2019-05-18T16:31:52.472Z,2.52
2019-05-18T16:34:21.896Z,2.72
2019-05-18T16:36:51.378Z,2.75
2019-05-18T16:39:20.905Z,2.77
2019-05-18T16:41:50.384Z,2.42
2019-05-18T16:44:19.844Z,2.40
2019-05-18T16:46:49.328Z,2.20
2019-05-18T16:49:19.759Z,2.25
2019-05-18T16:51:49.374Z,2.08
2019-05-18T16:54:18.828Z,2.10
2019-05-18T16:56:48.315Z,2.20
2019-05-18T16:59:17.773Z,2.12
2019-05-18T17:01:47.255Z,1.85
2019-05-18T17:04:16.716Z,1.95
2019-05-18T17:06:46.203Z,2.00
2019-05-18T17:09:15.659Z,1.95
2019-05-18T17:11:47.994Z,2.08
2019-05-18T17:14:16.209Z,1.62
2019-05-18T17:16:45.696Z,2.08
2019-05-18T17:19:15.152Z,2.22
2019-05-18T17:21:44.631Z,1.90
2019-05-18T17:24:14.092Z,1.95
2019-05-18T17:26:52.473Z,2.20
2019-05-18T17:29:14.707Z,2.10
2019-05-18T17:31:44.183Z,1.50
2019-05-18T17:34:13.631Z,2.27
2019-05-18T17:36:43.713Z,1.80
2019-05-18T17:39:13.256Z,1.87
2019-05-18T17:41:42.783Z,1.85
2019-05-18T17:44:12.275Z,2.08
2019-05-18T17:46:41.744Z,2.25
2019-05-18T17:49:25.914Z,2.47
2019-05-18T17:51:42.324Z,2.80
2019-05-18T17:54:11.854Z,2.60
2019-05-18T17:56:41.329Z,2.60
2019-05-18T17:59:10.782Z,3.08
2019-05-18T18:01:40.255Z,2.50
2019-05-18T18:04:09.711Z,2.80
2019-05-18T18:06:39.194Z,2.90
2019-05-18T18:09:08.991Z,2.70
2019-05-18T18:11:38.484Z,2.92
2019-05-18T18:14:08.003Z,2.70
2019-05-18T18:16:37.555Z,2.40
2019-05-18T18:19:07.178Z,3.17
2019-05-18T18:21:36.651Z,2.60
2019-05-18T18:24:06.253Z,2.67
2019-05-18T18:26:35.731Z,2.87
2019-05-18T18:29:05.262Z,2.83
2019-05-18T18:31:34.740Z,3.37
2019-05-18T18:34:04.262Z,2.90
2019-05-18T18:36:33.751Z,2.85
2019-05-18T18:39:04.012Z,2.80
2019-05-18T18:41:33.552Z,2.98
2019-05-18T18:44:03.157Z,2.70
2019-05-18T18:46:32.637Z,2.70
2019-05-18T18:49:02.168Z,2.50
2019-05-18T18:51:31.681Z,3.30
2019-05-18T18:54:01.132Z,3.25
2019-05-18T18:56:30.683Z,3.33
2019-05-18T18:59:00.134Z,3.05
2019-05-18T19:01:29.617Z,3.37
2019-05-18T19:03:59.071Z,3.42
2019-05-18T19:06:28.557Z,3.40
2019-05-18T19:08:58.085Z,3.70
2019-05-18T19:11:27.563Z,3.80
2019-05-18T19:13:57.094Z,3.50
2019-05-18T19:16:26.581Z,3.85
2019-05-18T19:18:56.029Z,3.58
2019-05-18T19:21:25.508Z,3.62
2019-05-18T19:23:54.971Z,3.90
2019-05-18T19:26:24.515Z,3.55
2019-05-18T19:28:53.931Z,3.90
2019-05-18T19:31:23.409Z,3.80
2019-05-18T19:33:52.850Z,3.47
2019-05-18T19:36:22.399Z,3.52
2019-05-18T19:38:51.857Z,3.85
2019-05-18T19:41:21.336Z,4.07
2019-05-18T19:43:50.795Z,3.87
2019-05-18T19:46:20.271Z,3.77
2019-05-18T19:48:49.750Z,3.97
2019-05-18T19:51:19.209Z,4.27
2019-05-18T19:53:48.698Z,4.70
2019-05-18T19:56:18.153Z,4.57
2019-05-18T19:58:47.623Z,4.63
2019-05-18T20:01:17.155Z,4.70
2019-05-18T20:03:46.622Z,4.90
2019-05-18T20:06:16.087Z,5.00
2019-05-18T20:08:45.542Z,5.03
2019-05-18T20:11:15.080Z,4.80
2019-05-18T20:13:45.630Z,5.67
2019-05-18T20:16:15.078Z,5.20
2019-05-18T20:18:44.557Z,5.00
2019-05-18T20:21:14.014Z,5.13
2019-05-18T20:23:43.481Z,5.10
2019-05-18T20:26:12.932Z,5.53
2019-05-18T20:28:42.392Z,4.87
2019-05-18T20:31:11.850Z,5.53
2019-05-18T20:33:41.390Z,5.53
2019-05-18T20:36:10.833Z,5.83
2019-05-18T20:38:40.306Z,5.73
2019-05-18T20:41:09.755Z,5.80
2019-05-18T20:43:39.286Z,5.90
2019-05-18T20:46:08.740Z,6.13
2019-05-18T20:48:38.223Z,5.43
2019-05-18T20:51:07.654Z,6.47
2019-05-18T20:53:37.117Z,6.47
2019-05-18T20:56:06.634Z,6.30
2019-05-18T20:58:40.084Z,6.07
2019-05-18T21:01:07.242Z,6.33
2019-05-18T21:03:36.723Z,6.17
2019-05-18T21:06:06.153Z,5.63
2019-05-18T21:08:35.613Z,6.37
2019-05-18T21:11:05.057Z,6.43
2019-05-18T21:13:34.530Z,6.30
2019-05-18T21:16:03.977Z,7.00
2019-05-18T21:18:33.444Z,7.23
2019-05-18T21:21:02.898Z,7.70
2019-05-18T21:23:32.366Z,8.00
2019-05-18T21:26:01.822Z,7.47
2019-05-18T21:28:31.291Z,7.50
2019-05-18T21:31:00.751Z,8.30
2019-05-18T21:33:30.221Z,7.77
2019-05-18T21:36:20.661Z,8.03
2019-05-18T21:38:51.795Z,7.70
2019-05-18T21:41:21.251Z,8.83
2019-05-18T21:43:52.742Z,8.63
2019-05-18T21:46:22.188Z,8.20
2019-05-18T21:48:51.658Z,8.53
2019-05-18T21:51:21.175Z,7.93
2019-05-18T21:53:50.654Z,9.20
2019-05-18T21:56:20.110Z,9.33
2019-05-18T21:58:49.577Z,8.73
2019-05-18T22:01:19.177Z,9.47
2019-05-18T22:03:48.731Z,9.53
2019-05-18T22:06:18.241Z,9.73
2019-05-18T22:08:47.710Z,9.13
2019-05-18T22:11:17.170Z,8.93
2019-05-18T22:13:46.638Z,9.13
2019-05-18T22:16:16.087Z,9.57
2019-05-18T22:18:45.558Z,9.33
2019-05-18T22:21:15.025Z,9.87
2019-05-18T22:23:44.474Z,9.77
2019-05-18T22:26:13.929Z,8.97
2019-05-18T22:28:44.357Z,9.57
2019-05-18T22:31:13.798Z,9.70
2019-05-18T22:33:43.268Z,9.70
2019-05-18T22:36:12.706Z,9.60
2019-05-18T22:38:42.193Z,11.03
2019-05-18T22:41:11.647Z,10.97
2019-05-18T22:43:41.098Z,10.60
2019-05-18T22:46:10.561Z,9.50
2019-05-18T22:48:41.673Z,10.83
2019-05-18T22:51:11.107Z,9.40
2019-05-18T22:53:40.579Z,10.73
2019-05-18T22:56:10.041Z,10.20
2019-05-18T22:58:39.485Z,10.93
2019-05-18T23:01:09.032Z,13.67
2019-05-18T23:03:38.486Z,13.87
2019-05-18T23:06:08.026Z,11.83
2019-05-18T23:08:37.478Z,12.00
2019-05-18T23:11:06.952Z,11.67
2019-05-18T23:13:36.393Z,9.53
2019-05-18T23:16:05.859Z,10.60
2019-05-18T23:18:35.313Z,11.97
2019-05-18T23:21:04.801Z,10.47
2019-05-18T23:23:34.258Z,10.00
2019-05-18T23:26:03.728Z,10.07
2019-05-18T23:28:33.182Z,10.20
2019-05-18T23:31:02.650Z,10.47
2019-05-18T23:33:32.093Z,11.83
2019-05-18T23:36:01.593Z,11.43
2019-05-18T23:38:31.027Z,10.37
2019-05-18T23:41:00.494Z,11.27
2019-05-18T23:43:29.937Z,11.43
2019-05-18T23:45:59.401Z,11.10
2019-05-18T23:48:28.911Z,9.13
2019-05-18T23:50:58.382Z,9.57
2019-05-18T23:53:27.822Z,10.07
2019-05-18T23:55:57.733Z,10.47
2019-05-18T23:58:27.178Z,10.27
